Time;durP1;ratioP1;P1;durP2;ratioP2;P2;SDS_P1;SDS_P2;PMS_P1;PMS_P2;Temp;Humidity;BMP_temperature;BMP_pressure;BME280_temperature;BME280_humidity;BME280_pressure;Samples;Min_cycle;Max_cycle;Signal;HPM_P1;HPM_P2
2023/12/17 00:01:14;;;;;;;11.27;6.18;;;;;;;;;;4812058;29;20047;-96
2023/12/17 00:03:40;;;;;;;10.13;5.55;;;;;;;;;;4803084;29;20460;-95
2023/12/17 00:06:06;;;;;;;10.27;5.50;;;;;;;;;;4799510;29;20085;-96
2023/12/17 00:08:32;;;;;;;10.15;5.65;;;;;;;;;;4791938;29;20061;-93
2023/12/17 00:10:59;;;;;;;11.65;5.28;;;;;;;;;;4778416;29;20034;-92
2023/12/17 00:13:25;;;;;;;13.27;6.25;;;;;;;;;;4808563;29;20053;-91
2023/12/17 00:15:51;;;;;;;14.07;4.95;;;;;;;;;;4809860;29;20045;-95
2023/12/17 00:18:17;;;;;;;12.02;6.13;;;;;;;;;;4808560;29;20076;-94
2023/12/17 00:20:43;;;;;;;17.13;5.82;;;;;;;;;;4795759;29;20141;-95
2023/12/17 00:23:09;;;;;;;12.25;5.18;;;;;;;;;;4810279;29;20050;-95
2023/12/17 00:25:35;;;;;;;8.73;5.35;;;;;;;;;;4795008;29;20145;-93
2023/12/17 00:28:02;;;;;;;10.65;5.63;;;;;;;;;;4809727;29;20058;-95
2023/12/17 00:30:28;;;;;;;11.82;5.32;;;;;;;;;;4805215;29;20142;-95
2023/12/17 00:32:54;;;;;;;5.30;4.72;;;;;;;;;;4791596;29;20063;-96
2023/12/17 00:35:20;;;;;;;8.25;5.03;;;;;;;;;;4790961;29;20050;-94
2023/12/17 00:37:46;;;;;;;9.07;5.95;;;;;;;;;;4775422;29;20059;-91
2023/12/17 00:40:13;;;;;;;10.18;5.40;;;;;;;;;;4790094;29;20133;-95
2023/12/17 00:42:39;;;;;;;13.10;5.47;;;;;;;;;;4803277;29;20047;-95
2023/12/17 00:45:05;;;;;;;17.42;5.82;;;;;;;;;;4781562;29;20042;-95
2023/12/17 00:47:31;;;;;;;9.07;5.00;;;;;;;;;;4790588;29;20061;-94
2023/12/17 00:49:57;;;;;;;9.57;4.93;;;;;;;;;;4790845;29;20094;-91
2023/12/17 00:52:23;;;;;;;8.10;5.72;;;;;;;;;;4805062;29;20046;-92
2023/12/17 00:54:49;;;;;;;8.20;5.50;;;;;;;;;;4793379;29;20137;-91
2023/12/17 00:57:16;;;;;;;8.80;4.20;;;;;;;;;;4808082;29;20403;-90
2023/12/17 00:59:42;;;;;;;11.75;5.75;;;;;;;;;;4797250;29;20051;-92
2023/12/17 01:02:08;;;;;;;8.68;5.03;;;;;;;;;;4788423;29;20053;-90
2023/12/17 01:04:34;;;;;;;15.10;6.07;;;;;;;;;;4822881;29;20061;-91
2023/12/17 01:07:00;;;;;;;19.30;6.57;;;;;;;;;;4807555;29;20074;-92
2023/12/17 01:09:26;;;;;;;11.88;5.68;;;;;;;;;;4807011;29;20053;-91
2023/12/17 01:11:52;;;;;;;10.63;5.57;;;;;;;;;;4822922;29;20129;-94
2023/12/17 01:14:18;;;;;;;12.35;5.07;;;;;;;;;;4820000;29;20050;-91
2023/12/17 01:16:44;;;;;;;11.32;5.10;;;;;;;;;;4804860;29;20062;-92
2023/12/17 01:19:10;;;;;;;13.65;5.00;;;;;;;;;;4790175;29;20051;-92
2023/12/17 01:21:37;;;;;;;9.98;5.43;;;;;;;;;;4799436;29;20133;-92
2023/12/17 01:24:03;;;;;;;7.35;5.20;;;;;;;;;;4807428;29;20055;-91
2023/12/17 01:26:29;;;;;;;10.27;4.97;;;;;;;;;;4807175;29;20138;-93
2023/12/17 01:28:58;;;;;;;13.25;5.38;;;;;;;;;;4823151;29;20050;-96
2023/12/17 01:31:24;;;;;;;7.00;4.80;;;;;;;;;;4811153;29;20058;-95
2023/12/17 01:33:50;;;;;;;7.50;4.93;;;;;;;;;;4805951;29;20046;-93
2023/12/17 01:36:17;;;;;;;15.10;6.18;;;;;;;;;;4807457;29;20138;-94
2023/12/17 01:38:43;;;;;;;9.48;4.85;;;;;;;;;;4822773;29;20564;-95
2023/12/17 01:41:09;;;;;;;14.90;5.65;;;;;;;;;;4806940;29;20408;-93
2023/12/17 01:43:35;;;;;;;9.48;5.32;;;;;;;;;;4778137;29;20051;-92
2023/12/17 01:46:01;;;;;;;9.70;5.35;;;;;;;;;;4789376;29;20517;-93
2023/12/17 01:48:27;;;;;;;11.35;4.65;;;;;;;;;;4815690;29;20137;-91
2023/12/17 01:50:57;;;;;;;9.15;4.78;;;;;;;;;;4789770;29;20047;-93
2023/12/17 01:53:23;;;;;;;14.23;4.93;;;;;;;;;;4794155;29;20047;-92
2023/12/17 01:55:50;;;;;;;11.82;5.60;;;;;;;;;;4808019;29;20064;-94
2023/12/17 01:58:17;;;;;;;9.02;4.82;;;;;;;;;;4777621;29;20057;-91
2023/12/17 02:00:44;;;;;;;15.20;6.47;;;;;;;;;;4777780;29;20047;-94
2023/12/17 02:03:10;;;;;;;8.02;5.03;;;;;;;;;;4780447;29;20142;-90
2023/12/17 02:05:37;;;;;;;9.15;4.38;;;;;;;;;;4793563;29;20066;-92
2023/12/17 02:08:03;;;;;;;7.18;4.75;;;;;;;;;;4792750;29;20093;-92
2023/12/17 02:10:30;;;;;;;9.85;5.28;;;;;;;;;;4800623;29;20053;-94
2023/12/17 02:12:59;;;;;;;14.98;4.97;;;;;;;;;;4795189;29;20062;-93
2023/12/17 02:15:25;;;;;;;10.52;5.28;;;;;;;;;;4807650;29;20091;-89
2023/12/17 02:17:51;;;;;;;6.07;4.57;;;;;;;;;;4825425;29;20114;-94
2023/12/17 02:20:17;;;;;;;7.00;4.55;;;;;;;;;;4809872;29;20046;-92
2023/12/17 02:22:44;;;;;;;10.30;4.90;;;;;;;;;;4795554;29;20583;-93
2023/12/17 02:25:10;;;;;;;15.80;5.60;;;;;;;;;;4808195;29;20086;-90
2023/12/17 02:27:36;;;;;;;9.50;4.75;;;;;;;;;;4792436;29;20051;-93
2023/12/17 02:30:02;;;;;;;11.63;4.97;;;;;;;;;;4791944;29;20050;-93
2023/12/17 02:32:29;;;;;;;10.70;4.45;;;;;;;;;;4792213;29;20074;-94
2023/12/17 02:34:55;;;;;;;13.77;4.57;;;;;;;;;;4777250;29;20184;-93
2023/12/17 02:37:21;;;;;;;9.30;4.25;;;;;;;;;;4807924;29;20062;-92
2023/12/17 02:39:47;;;;;;;12.88;4.65;;;;;;;;;;4795362;29;20404;-93
2023/12/17 02:42:13;;;;;;;10.95;5.10;;;;;;;;;;4815922;29;20055;-93
2023/12/17 02:44:40;;;;;;;6.57;4.10;;;;;;;;;;4792003;29;20042;-90
2023/12/17 02:47:06;;;;;;;12.15;5.13;;;;;;;;;;4806875;29;20146;-93
2023/12/17 02:49:33;;;;;;;9.55;4.68;;;;;;;;;;4796488;29;20453;-93
2023/12/17 02:51:59;;;;;;;6.78;4.78;;;;;;;;;;4795166;29;20050;-91
2023/12/17 02:54:26;;;;;;;5.53;4.50;;;;;;;;;;4809499;29;20047;-91
2023/12/17 02:56:52;;;;;;;9.07;4.22;;;;;;;;;;4809960;29;20050;-95
2023/12/17 02:59:18;;;;;;;8.55;5.13;;;;;;;;;;4809710;29;20130;-93
2023/12/17 03:01:45;;;;;;;10.32;4.57;;;;;;;;;;4799415;29;20058;-92
2023/12/17 03:04:11;;;;;;;8.45;4.20;;;;;;;;;;4791188;29;20479;-93
2023/12/17 03:06:38;;;;;;;6.07;4.68;;;;;;;;;;4790945;29;20059;-96
2023/12/17 03:09:05;;;;;;;10.25;4.22;;;;;;;;;;4794973;29;20073;-96
2023/12/17 03:11:31;;;;;;;15.00;4.72;;;;;;;;;;4798122;29;20050;-92
2023/12/17 03:13:57;;;;;;;9.57;4.15;;;;;;;;;;4809278;29;20500;-90
2023/12/17 03:16:24;;;;;;;10.75;5.10;;;;;;;;;;4794787;29;20099;-93
2023/12/17 03:18:51;;;;;;;9.13;5.25;;;;;;;;;;4806202;29;20070;-96
2023/12/17 03:21:17;;;;;;;7.85;4.97;;;;;;;;;;4796112;29;20300;-91
2023/12/17 03:23:43;;;;;;;13.10;5.65;;;;;;;;;;4777505;29;20576;-92
2023/12/17 03:26:09;;;;;;;18.33;5.75;;;;;;;;;;4806269;29;20405;-87
2023/12/17 03:28:35;;;;;;;8.32;5.32;;;;;;;;;;4808474;29;20133;-93
2023/12/17 03:31:02;;;;;;;10.77;5.15;;;;;;;;;;4815450;29;20079;-92
2023/12/17 03:33:28;;;;;;;9.68;4.55;;;;;;;;;;4781933;29;20501;-92
2023/12/17 03:35:54;;;;;;;10.18;4.85;;;;;;;;;;4776125;29;20520;-96
2023/12/17 03:38:20;;;;;;;12.95;4.32;;;;;;;;;;4801581;29;20050;-96
2023/12/17 03:40:46;;;;;;;10.80;4.90;;;;;;;;;;4794795;29;20091;-95
2023/12/17 03:43:12;;;;;;;8.60;4.85;;;;;;;;;;4809514;29;20078;-94
2023/12/17 03:45:39;;;;;;;10.73;5.15;;;;;;;;;;4787640;29;20054;-96
2023/12/17 03:48:05;;;;;;;7.95;4.85;;;;;;;;;;4792266;29;20046;-95
2023/12/17 03:50:31;;;;;;;12.57;4.88;;;;;;;;;;4791979;29;20089;-96
2023/12/17 03:52:58;;;;;;;13.18;5.78;;;;;;;;;;4792428;29;20055;-95
2023/12/17 03:55:24;;;;;;;11.15;6.00;;;;;;;;;;4807802;29;20051;-96
2023/12/17 03:57:50;;;;;;;8.85;5.78;;;;;;;;;;4785457;29;20126;-96
2023/12/17 04:00:16;;;;;;;8.85;5.22;;;;;;;;;;4798852;29;20074;-91
2023/12/17 04:02:42;;;;;;;14.27;7.18;;;;;;;;;;4809987;29;20120;-95
2023/12/17 04:05:09;;;;;;;12.02;5.75;;;;;;;;;;4796918;29;20059;-96
2023/12/17 04:07:35;;;;;;;13.02;5.30;;;;;;;;;;4795344;29;20219;-96
2023/12/17 04:10:02;;;;;;;14.35;7.18;;;;;;;;;;4796755;29;20051;-95
2023/12/17 04:12:28;;;;;;;10.15;5.68;;;;;;;;;;4796304;29;20055;-96
2023/12/17 04:14:54;;;;;;;13.48;4.97;;;;;;;;;;4794690;29;20133;-95
2023/12/17 04:17:20;;;;;;;12.57;6.18;;;;;;;;;;4795944;29;20051;-96
2023/12/17 04:19:46;;;;;;;12.77;6.07;;;;;;;;;;4815277;29;20054;-96
2023/12/17 04:22:12;;;;;;;9.02;5.15;;;;;;;;;;4814801;29;20404;-96
2023/12/17 04:24:39;;;;;;;13.68;6.07;;;;;;;;;;4797746;29;20046;-96
2023/12/17 04:27:06;;;;;;;11.90;6.40;;;;;;;;;;4808570;29;20054;-95
2023/12/17 04:29:32;;;;;;;15.07;5.90;;;;;;;;;;4807949;29;20057;-96
2023/12/17 04:31:58;;;;;;;11.15;5.50;;;;;;;;;;4794199;29;20062;-95
2023/12/17 04:34:24;;;;;;;12.32;4.85;;;;;;;;;;4808100;29;20161;-94
2023/12/17 04:36:50;;;;;;;11.20;6.03;;;;;;;;;;4824160;29;20149;-94
2023/12/17 04:39:16;;;;;;;8.52;6.22;;;;;;;;;;4809217;29;20082;-95
2023/12/17 04:41:42;;;;;;;9.60;5.50;;;;;;;;;;4807059;29;20122;-93
2023/12/17 04:44:08;;;;;;;20.08;7.07;;;;;;;;;;4776105;29;20133;-95
2023/12/17 04:46:34;;;;;;;9.50;5.85;;;;;;;;;;4805418;29;20051;-95
2023/12/17 04:49:00;;;;;;;11.20;6.28;;;;;;;;;;4775399;29;20075;-96
2023/12/17 04:51:27;;;;;;;17.25;6.35;;;;;;;;;;4790341;29;20467;-95
2023/12/17 04:53:53;;;;;;;14.15;6.93;;;;;;;;;;4794430;29;20500;-94
2023/12/17 04:56:20;;;;;;;15.23;6.35;;;;;;;;;;4792937;29;20046;-94
2023/12/17 04:58:46;;;;;;;10.30;6.38;;;;;;;;;;4806765;29;20061;-95
2023/12/17 05:01:12;;;;;;;10.48;6.75;;;;;;;;;;4789747;29;20568;-94
2023/12/17 05:03:38;;;;;;;15.05;6.00;;;;;;;;;;4808681;29;20053;-95
2023/12/17 05:06:05;;;;;;;13.45;7.28;;;;;;;;;;4807754;29;20412;-95
2023/12/17 05:08:31;;;;;;;17.30;6.40;;;;;;;;;;4808673;29;20133;-95
2023/12/17 05:10:57;;;;;;;18.48;7.07;;;;;;;;;;4785706;29;20744;-96
2023/12/17 05:13:23;;;;;;;13.63;6.95;;;;;;;;;;4790319;29;20043;-95
2023/12/17 05:15:50;;;;;;;12.95;7.22;;;;;;;;;;4804776;29;20074;-90
2023/12/17 05:18:16;;;;;;;13.23;5.97;;;;;;;;;;4806793;29;20046;-96
2023/12/17 05:20:44;;;;;;;13.40;6.78;;;;;;;;;;4790381;29;20059;-96
2023/12/17 05:23:12;;;;;;;12.63;6.50;;;;;;;;;;4793513;29;20047;-96
2023/12/17 05:25:39;;;;;;;9.98;5.60;;;;;;;;;;4793618;29;20042;-96
2023/12/17 05:28:07;;;;;;;23.52;6.00;;;;;;;;;;4797182;29;20137;-94
2023/12/17 05:30:33;;;;;;;10.65;6.00;;;;;;;;;;4811269;29;20085;-96
2023/12/17 05:32:59;;;;;;;10.43;6.10;;;;;;;;;;4826160;29;20409;-92
2023/12/17 05:35:25;;;;;;;14.73;7.10;;;;;;;;;;4810925;29;20133;-90
2023/12/17 05:37:51;;;;;;;13.23;7.32;;;;;;;;;;4811466;29;20123;-93
2023/12/17 05:40:17;;;;;;;11.95;6.95;;;;;;;;;;4811348;29;20118;-92
2023/12/17 05:42:43;;;;;;;7.70;6.40;;;;;;;;;;4796471;29;20046;-92
2023/12/17 05:45:09;;;;;;;13.70;7.10;;;;;;;;;;4796085;29;20053;-92
2023/12/17 05:47:35;;;;;;;14.07;7.13;;;;;;;;;;4794802;29;20053;-93
2023/12/17 05:50:03;;;;;;;11.35;5.97;;;;;;;;;;4796416;29;20140;-94
2023/12/17 05:52:29;;;;;;;14.85;7.70;;;;;;;;;;4811219;29;20054;-92
2023/12/17 05:54:55;;;;;;;11.45;7.57;;;;;;;;;;4810136;29;20114;-93
2023/12/17 05:57:21;;;;;;;16.17;6.63;;;;;;;;;;4810675;29;20050;-90
2023/12/17 05:59:47;;;;;;;12.43;5.95;;;;;;;;;;4810051;29;20042;-90
2023/12/17 06:02:13;;;;;;;12.35;6.53;;;;;;;;;;4782885;29;20051;-92
2023/12/17 06:04:39;;;;;;;14.32;7.32;;;;;;;;;;4794694;29;20047;-90
2023/12/17 06:07:06;;;;;;;12.13;7.40;;;;;;;;;;4795402;29;20054;-93
2023/12/17 06:09:32;;;;;;;14.80;7.68;;;;;;;;;;4797622;29;20050;-89
2023/12/17 06:11:58;;;;;;;15.13;6.03;;;;;;;;;;4793645;29;20508;-92
2023/12/17 06:14:25;;;;;;;9.05;6.60;;;;;;;;;;4810480;29;20102;-93
2023/12/17 06:16:51;;;;;;;18.23;6.68;;;;;;;;;;4821026;29;20054;-93
2023/12/17 06:19:17;;;;;;;12.13;6.63;;;;;;;;;;4792395;29;20051;-91
2023/12/17 06:21:43;;;;;;;18.95;7.13;;;;;;;;;;4795177;29;20042;-93
2023/12/17 06:24:09;;;;;;;14.27;7.05;;;;;;;;;;4810377;29;20099;-93
2023/12/17 06:26:36;;;;;;;16.27;7.40;;;;;;;;;;4820257;29;20050;-93
2023/12/17 06:29:02;;;;;;;11.98;6.85;;;;;;;;;;4792298;29;20467;-92
2023/12/17 06:31:28;;;;;;;13.20;6.38;;;;;;;;;;4791963;29;20047;-92
2023/12/17 06:33:54;;;;;;;16.55;8.38;;;;;;;;;;4781950;29;20050;-93
2023/12/17 06:36:20;;;;;;;13.55;6.93;;;;;;;;;;4809961;29;20050;-92
2023/12/17 06:38:47;;;;;;;17.88;8.65;;;;;;;;;;4794532;29;20137;-92
2023/12/17 06:41:13;;;;;;;14.52;7.50;;;;;;;;;;4809600;29;20118;-91
2023/12/17 06:43:40;;;;;;;10.27;7.85;;;;;;;;;;4809943;29;20103;-93
2023/12/17 06:46:07;;;;;;;11.15;6.88;;;;;;;;;;4795186;29;20062;-93
2023/12/17 06:48:36;;;;;;;13.93;7.65;;;;;;;;;;4795151;29;20051;-93
2023/12/17 06:51:03;;;;;;;13.07;6.72;;;;;;;;;;4802250;29;20373;-92
2023/12/17 06:53:29;;;;;;;12.13;6.40;;;;;;;;;;4825320;29;20436;-91
2023/12/17 06:55:55;;;;;;;12.45;5.90;;;;;;;;;;4809951;29;20053;-93
2023/12/17 06:58:22;;;;;;;13.00;7.18;;;;;;;;;;4810393;29;20054;-93
2023/12/17 07:00:48;;;;;;;10.93;5.75;;;;;;;;;;4794738;29;20485;-91
2023/12/17 07:03:18;;;;;;;22.23;8.77;;;;;;;;;;4792137;29;20057;-91
2023/12/17 07:05:44;;;;;;;14.65;7.88;;;;;;;;;;4792636;29;20146;-92
2023/12/17 07:08:10;;;;;;;19.70;8.93;;;;;;;;;;4814580;29;20138;-93
2023/12/17 07:10:36;;;;;;;11.15;6.85;;;;;;;;;;4809454;29;20487;-91
2023/12/17 07:13:03;;;;;;;12.43;8.50;;;;;;;;;;4794647;29;20043;-93
2023/12/17 07:15:29;;;;;;;13.65;9.30;;;;;;;;;;4808745;29;20050;-90
2023/12/17 07:17:56;;;;;;;13.85;9.80;;;;;;;;;;4809490;29;20065;-91
2023/12/17 07:20:22;;;;;;;16.67;9.05;;;;;;;;;;4809529;29;20054;-92
2023/12/17 07:22:48;;;;;;;23.75;9.85;;;;;;;;;;4794203;29;20050;-94
2023/12/17 07:25:14;;;;;;;18.77;9.07;;;;;;;;;;4794709;29;20054;-95
2023/12/17 07:27:43;;;;;;;15.45;8.48;;;;;;;;;;4793725;29;20150;-94
2023/12/17 07:30:09;;;;;;;16.92;9.02;;;;;;;;;;4791224;29;20508;-96
2023/12/17 07:32:35;;;;;;;15.38;8.05;;;;;;;;;;4776417;29;20050;-95
2023/12/17 07:35:03;;;;;;;19.05;10.25;;;;;;;;;;4776603;29;20203;-95
2023/12/17 07:37:29;;;;;;;17.98;8.75;;;;;;;;;;4793410;29;20531;-95
2023/12/17 07:39:56;;;;;;;14.73;8.27;;;;;;;;;;4809573;29;20049;-95
2023/12/17 07:42:23;;;;;;;15.52;8.32;;;;;;;;;;4809781;29;20050;-93
2023/12/17 07:44:49;;;;;;;19.65;9.88;;;;;;;;;;4809262;29;20134;-96
2023/12/17 07:47:15;;;;;;;18.80;9.43;;;;;;;;;;4809002;29;20073;-94
2023/12/17 07:49:41;;;;;;;15.75;8.20;;;;;;;;;;4804465;29;20047;-95
2023/12/17 07:52:07;;;;;;;13.35;9.23;;;;;;;;;;4790887;29;20497;-93
2023/12/17 07:54:33;;;;;;;12.07;7.88;;;;;;;;;;4790854;29;20051;-95
2023/12/17 07:57:00;;;;;;;13.45;7.85;;;;;;;;;;4811430;29;20050;-94
2023/12/17 07:59:26;;;;;;;13.77;7.68;;;;;;;;;;4791033;29;20057;-96
2023/12/17 08:01:52;;;;;;;14.05;6.72;;;;;;;;;;4776231;29;20050;-95
2023/12/17 08:04:18;;;;;;;17.08;7.10;;;;;;;;;;4805776;29;20043;-95
2023/12/17 08:06:44;;;;;;;18.08;8.63;;;;;;;;;;4790332;29;20119;-91
2023/12/17 08:09:11;;;;;;;11.05;7.10;;;;;;;;;;4791006;29;20494;-96
2023/12/17 08:11:37;;;;;;;13.77;7.18;;;;;;;;;;4790802;29;20090;-95
2023/12/17 08:14:03;;;;;;;20.50;7.97;;;;;;;;;;4776652;29;20053;-96
2023/12/17 08:16:30;;;;;;;13.38;6.90;;;;;;;;;;4805842;29;20050;-90
2023/12/17 08:18:56;;;;;;;16.48;8.30;;;;;;;;;;4798288;29;20058;-93
2023/12/17 08:21:22;;;;;;;15.70;8.20;;;;;;;;;;4804231;29;20054;-95
2023/12/17 08:23:48;;;;;;;13.15;6.93;;;;;;;;;;4776246;29;20049;-93
2023/12/17 08:26:14;;;;;;;15.65;7.50;;;;;;;;;;4790936;29;20043;-94
2023/12/17 08:28:41;;;;;;;12.18;6.70;;;;;;;;;;4790843;29;20055;-96
2023/12/17 08:31:09;;;;;;;9.75;7.32;;;;;;;;;;4791202;29;20054;-95
2023/12/17 08:33:36;;;;;;;8.90;7.15;;;;;;;;;;4805655;29;20650;-96
2023/12/17 08:36:02;;;;;;;10.23;6.90;;;;;;;;;;4803372;29;20062;-96
2023/12/17 08:38:28;;;;;;;15.52;8.15;;;;;;;;;;4809081;29;20057;-94
2023/12/17 08:40:54;;;;;;;15.27;7.75;;;;;;;;;;4793753;29;20046;-95
2023/12/17 08:43:20;;;;;;;15.13;8.52;;;;;;;;;;4793858;29;20058;-95
2023/12/17 08:45:47;;;;;;;13.32;6.35;;;;;;;;;;4808657;29;20058;-94
2023/12/17 08:48:13;;;;;;;24.63;7.95;;;;;;;;;;4808567;29;20054;-96
2023/12/17 08:50:39;;;;;;;18.90;9.23;;;;;;;;;;4823922;29;20086;-96
2023/12/17 08:53:05;;;;;;;18.23;7.40;;;;;;;;;;4775871;29;20066;-95
2023/12/17 08:55:31;;;;;;;15.23;9.05;;;;;;;;;;4789927;29;20080;-95
2023/12/17 08:57:58;;;;;;;15.48;7.13;;;;;;;;;;4775155;29;20057;-94
2023/12/17 09:00:25;;;;;;;21.77;8.63;;;;;;;;;;4790229;29;20072;-95
2023/12/17 09:02:52;;;;;;;21.25;9.98;;;;;;;;;;4794210;29;20050;-95
2023/12/17 09:05:18;;;;;;;21.23;9.82;;;;;;;;;;4807842;29;20481;-96
2023/12/17 09:07:45;;;;;;;16.15;8.30;;;;;;;;;;4811413;29;20145;-96
2023/12/17 09:10:11;;;;;;;14.63;8.73;;;;;;;;;;4812052;29;20073;-94
2023/12/17 09:12:37;;;;;;;17.65;8.52;;;;;;;;;;4828557;29;20054;-96
2023/12/17 09:15:03;;;;;;;19.30;7.82;;;;;;;;;;4797321;29;20541;-96
2023/12/17 09:17:29;;;;;;;27.15;9.13;;;;;;;;;;4806020;29;20053;-96
2023/12/17 09:19:55;;;;;;;26.23;8.85;;;;;;;;;;4812275;29;20046;-94
2023/12/17 09:22:21;;;;;;;20.90;8.85;;;;;;;;;;4813293;29;20058;-94
2023/12/17 09:24:47;;;;;;;21.73;8.07;;;;;;;;;;4781882;29;20195;-96
2023/12/17 09:27:13;;;;;;;24.45;8.98;;;;;;;;;;4794448;29;20050;-94
2023/12/17 09:29:40;;;;;;;23.58;9.10;;;;;;;;;;4784466;29;20442;-96
2023/12/17 09:32:08;;;;;;;13.90;6.72;;;;;;;;;;4785585;29;20109;-95
2023/12/17 09:34:34;;;;;;;18.00;8.05;;;;;;;;;;4783349;29;20099;-96
2023/12/17 09:37:00;;;;;;;21.88;8.40;;;;;;;;;;4800288;29;20088;-95
2023/12/17 09:39:26;;;;;;;12.93;6.78;;;;;;;;;;4813391;29;20054;-93
2023/12/17 09:41:52;;;;;;;23.73;8.75;;;;;;;;;;4817570;29;20054;-94
2023/12/17 09:44:19;;;;;;;16.80;6.57;;;;;;;;;;4841979;29;20042;-96
2023/12/17 09:46:45;;;;;;;11.73;7.47;;;;;;;;;;4843709;29;20055;-95
2023/12/17 09:49:11;;;;;;;21.35;7.05;;;;;;;;;;4824899;29;20035;-92
2023/12/17 09:51:43;;;;;;;13.30;6.03;;;;;;;;;;4830324;29;20038;-96
2023/12/17 09:54:27;;;;;;;14.23;7.22;;;;;;;;;;4998804;24;20054;-92
2023/12/17 09:56:55;;;;;;;18.83;7.47;;;;;;;;;;4849055;29;20046;-89
2023/12/17 10:00:10;;;;;;;13.85;6.07;;;;;;;;;;4825611;29;20053;-91
2023/12/17 10:10:48;;;;;;;18.42;7.90;;;;;;;;;;2322994;27;20092;-91
2023/12/17 10:13:22;;;;;;;27.55;8.25;;;;;;;;;;4811869;29;20058;-87
2023/12/17 10:15:53;;;;;;;12.05;6.32;;;;;;;;;;4839754;23;20091;-89
2023/12/17 10:18:55;;;;;;;22.80;9.98;;;;;;;;;;4815249;29;20063;-96
2023/12/17 11:04:02;;;;;;;22.95;11.10;;;;;;;;;;5198626;24;20361;-94
2023/12/17 11:09:59;;;;;;;22.55;12.40;;;;;;;;;;5250728;24;20058;-95
2023/12/17 11:12:56;;;;;;;22.88;12.23;;;;;;;;;;4888129;24;20064;-94
2023/12/17 11:24:04;;;;;;;22.05;12.63;;;;;;;;;;4816156;24;20078;-88
2023/12/17 11:29:52;;;;;;;22.88;12.35;;;9.60;99.90;;;;;;4907088;24;20055;-89
2023/12/17 11:32:28;;;;;;;22.90;13.52;;;;;;;;;;4843300;24;20076;-95
2023/12/17 11:35:02;;;;;;;23.95;13.23;;;;;;;;;;4789239;29;20043;-95
2023/12/17 11:37:34;;;;;;;27.35;13.80;;;;;;;;;;4774718;30;20519;-95
2023/12/17 11:40:00;;;;;;;22.48;11.07;;;;;;;;;;4773726;30;20582;-94
2023/12/17 11:42:26;;;;;;;23.00;14.13;;;;;;;;;;4788133;29;20501;-95
2023/12/17 11:44:52;;;;;;;20.73;11.70;;;;;;;;;;4790117;29;20141;-96
2023/12/17 11:47:26;;;;;;;28.10;13.93;;;;;;;;;;4774075;29;20055;-96
2023/12/17 11:49:57;;;;;;;29.15;13.88;;;;;;;;;;4788689;29;20135;-95
2023/12/17 11:52:23;;;;;;;19.13;11.25;;;;;;;;;;4788468;29;20553;-96
2023/12/17 11:54:57;;;;;;;20.77;11.38;;;;;;;;;;4781104;29;20412;-94
2023/12/17 11:57:24;;;;;;;15.82;10.75;;;;;;;;;;4759015;30;20402;-96
2023/12/17 11:59:51;;;;;;;22.13;13.48;;;;;;;;;;4789553;30;20133;-96
2023/12/17 12:02:27;;;;;;;21.05;11.20;;;;;;;;;;4785260;29;20061;-96
2023/12/17 12:04:55;;;;;;;19.10;10.45;;;;;;;;;;4807785;29;20091;-92
2023/12/17 12:07:21;;;;;;;20.60;10.32;;;;;;;;;;4804369;29;20125;-91
2023/12/17 12:09:48;;;;;;;19.65;11.15;;;;;;;;;;4785901;29;20043;-91
2023/12/17 12:12:17;;;;;;;23.83;11.65;;;;;;;;;;4780177;29;20130;-90
2023/12/17 12:14:48;;;;;;;20.42;11.25;;;;;;;;;;4794601;29;20440;-88
2023/12/17 12:17:33;;;;;;;19.23;10.70;;;;;;;;;;4802501;29;20043;-96
2023/12/17 12:20:00;;;;;;;19.35;13.80;;;;;;;;;;4802383;29;20047;-95
2023/12/17 12:22:29;;;;;;;21.25;11.43;;;;;;;;;;4804276;29;20053;-87
2023/12/17 12:24:56;;;;;;;21.02;12.02;;;;;;;;;;4790222;29;20401;-91
2023/12/17 12:27:22;;;;;;;21.45;11.85;;;;;;;;;;4784286;29;20119;-89
2023/12/17 12:29:48;;;;;;;22.50;12.07;;;;;;;;;;4784282;29;20569;-90
2023/12/17 12:32:31;;;;;;;24.85;10.75;;;;;;;;;;4795228;29;20043;-89
2023/12/17 12:34:57;;;;;;;22.95;13.02;;;;;;;;;;4793958;29;20051;-88
2023/12/17 12:37:37;;;;;;;23.02;12.75;;;;;;;;;;4795392;29;20043;-87
2023/12/17 12:40:05;;;;;;;21.85;11.73;;;;;;;;;;4778162;29;20055;-91
2023/12/17 12:42:31;;;;;;;26.88;12.80;;;;;;;;;;4795964;29;20569;-87
2023/12/17 12:44:57;;;;;;;19.17;12.32;;;;;;;;;;4784876;29;20508;-90
2023/12/17 12:47:24;;;;;;;22.10;12.18;;;;;;;;;;4789390;29;20050;-88
2023/12/17 12:49:51;;;;;;;23.65;13.43;;;;;;;;;;4789719;29;20051;-88
2023/12/17 12:52:23;;;;;;;19.75;12.13;;;;;;;;;;4774776;29;20081;-92
2023/12/17 12:54:53;;;;;;;24.10;12.18;;;;;;;;;;4774616;30;20056;-91
2023/12/17 12:57:22;;;;;;;21.92;13.00;;;;;;;;;;4801465;29;20066;-96
2023/12/17 12:59:48;;;;;;;25.98;13.80;;;;;;;;;;4806189;29;20081;-94
2023/12/17 13:02:14;;;;;;;32.13;14.55;;;;;;;;;;4789224;29;20070;-89
2023/12/17 13:04:41;;;;;;;21.27;13.93;;;;;;;;;;4801122;29;20062;-91
2023/12/17 13:07:07;;;;;;;28.42;12.98;;;;;;;;;;4791861;29;20392;-93
2023/12/17 13:09:35;;;;;;;24.08;13.55;;;;;;;;;;4799914;29;20081;-93
2023/12/17 13:12:04;;;;;;;27.25;13.93;;;;;;;;;;4779454;29;21932;-90
2023/12/17 13:14:30;;;;;;;24.67;14.52;;;;;;;;;;4781722;29;20055;-96
2023/12/17 14:38:28;;;;;;;22.17;12.63;;;;;;;;;;4840125;29;20859;-94
2023/12/17 14:40:54;;;;;;;20.33;12.07;;;;;;;;;;4816335;29;20069;-94
2023/12/17 14:43:21;;;;;;;20.98;11.73;;;;;;;;;;4801994;29;20399;-87
2023/12/17 14:45:47;;;;;;;19.65;10.10;;;;;;;;;;4785145;29;20393;-88
2023/12/17 14:48:13;;;;;;;18.98;11.70;;;;;;;;;;4817467;29;20093;-89
2023/12/17 14:50:39;;;;;;;18.73;10.38;;;;;;;;;;4800891;29;20097;-96
2023/12/17 14:53:05;;;;;;;22.63;12.27;;;;;;;;;;4786174;29;20149;-93
2023/12/17 14:55:31;;;;;;;23.10;12.13;;;;;;;;;;4816041;29;20499;-95
2023/12/17 14:57:57;;;;;;;20.42;12.20;;;;;;;;;;4815386;29;20050;-95
2023/12/17 15:00:23;;;;;;;22.60;11.63;;;;;;;;;;4784328;29;20118;-91
2023/12/17 15:02:50;;;;;;;23.52;11.35;;;;;;;;;;4785352;29;20069;-90
2023/12/17 15:05:17;;;;;;;20.10;11.02;;;;;;;;;;4797021;29;20086;-91
2023/12/17 15:07:43;;;;;;;22.48;11.35;;;;;;;;;;4798798;29;20066;-93
2023/12/17 15:10:09;;;;;;;18.83;11.15;;;;;;;;;;4782808;29;20469;-94
2023/12/17 15:12:36;;;;;;;20.98;10.23;;;;;;;;;;4800810;29;20081;-91
2023/12/17 15:15:03;;;;;;;17.00;10.25;;;;;;;;;;4802603;29;20050;-92
2023/12/17 15:17:29;;;;;;;21.23;11.02;;;;;;;;;;4791546;29;20054;-94
2023/12/17 15:19:55;;;;;;;20.90;10.32;;;;;;;;;;4786894;29;20069;-89
2023/12/17 15:22:21;;;;;;;17.92;9.80;;;;;;;;;;4786282;29;20062;-96
2023/12/17 15:24:50;;;;;;;20.80;10.50;;;;;;;;;;4786913;29;20058;-96
2023/12/17 15:27:17;;;;;;;15.43;8.32;;;;;;;;;;4784138;29;20093;-95
2023/12/17 15:29:43;;;;;;;23.15;9.35;;;;;;;;;;4784274;29;20103;-94
2023/12/17 15:32:12;;;;;;;16.58;8.75;;;;;;;;;;4814415;29;20054;-96
2023/12/17 15:34:38;;;;;;;22.75;8.63;;;;;;;;;;4784698;29;20069;-96
2023/12/17 15:37:05;;;;;;;14.63;8.30;;;;;;;;;;4783800;29;20089;-92
2023/12/17 15:39:32;;;;;;;14.93;7.72;;;;;;;;;;4782321;29;20050;-93
2023/12/17 15:41:58;;;;;;;20.83;8.07;;;;;;;;;;4783798;29;20508;-95
2023/12/17 15:44:25;;;;;;;15.25;8.20;;;;;;;;;;4798203;29;20050;-93
2023/12/17 15:46:51;;;;;;;15.93;7.40;;;;;;;;;;4783407;29;20062;-95
2023/12/17 15:49:17;;;;;;;22.00;8.48;;;;;;;;;;4798652;29;20543;-95
2023/12/17 15:51:43;;;;;;;13.82;7.93;;;;;;;;;;4782245;29;20055;-88
2023/12/17 15:54:10;;;;;;;10.68;5.38;;;;;;;;;;4797654;29;20071;-94
2023/12/17 15:56:36;;;;;;;20.98;7.60;;;;;;;;;;4798720;29;20055;-93
2023/12/17 15:59:02;;;;;;;17.92;7.38;;;;;;;;;;4782154;29;21670;-95
2023/12/17 16:01:28;;;;;;;16.70;7.05;;;;;;;;;;4781937;29;20042;-94
2023/12/17 16:03:55;;;;;;;13.73;7.00;;;;;;;;;;4783491;29;20054;-93
2023/12/17 16:06:22;;;;;;;14.70;7.53;;;;;;;;;;4782615;29;20118;-95
2023/12/17 16:08:48;;;;;;;13.77;6.47;;;;;;;;;;4795882;29;20066;-93
2023/12/17 16:11:14;;;;;;;11.98;5.03;;;;;;;;;;4797074;29;20061;-94
2023/12/17 16:13:40;;;;;;;15.82;7.38;;;;;;;;;;4783641;29;20149;-96
2023/12/17 16:16:06;;;;;;;11.88;5.32;;;;;;;;;;4783556;29;20508;-95
2023/12/17 16:18:33;;;;;;;15.13;5.63;;;;;;;;;;4798760;29;20050;-91
2023/12/17 16:21:21;;;;;;;18.77;6.20;;;;;;;;;;4791367;29;20047;-88
2023/12/17 16:24:22;;;;;;;14.55;4.75;;;;;;;;;;4782081;29;20050;-91
2023/12/17 16:26:48;;;;;;;13.30;4.50;;;;;;;;;;4855310;23;20052;-89
2023/12/17 16:29:15;;;;;;;15.85;5.53;;;;;;;;;;4839143;29;20080;-90
2023/12/17 16:31:41;;;;;;;12.68;5.05;;;;;;;;;;4824889;29;20037;-92
2023/12/17 16:34:09;;;;;;;12.38;5.30;;;;;;;;;;4811562;29;20061;-91
2023/12/17 16:36:45;;;;;;;14.38;5.30;;;;;;;;;;4818945;29;20085;-87
2023/12/17 16:39:18;;;;;;;12.15;4.53;;;;;;;;;;4817165;29;20046;-89
2023/12/17 16:42:05;;;;;;;9.05;4.25;;;;;;;;;;4849326;29;20045;-87
2023/12/17 16:44:35;;;;;;;17.17;4.78;;;;;;;;;;4848707;29;20042;-89
2023/12/17 16:47:08;;;;;;;15.80;5.57;;;;;;;;;;4808408;29;20060;-89
2023/12/17 16:49:34;;;;;;;15.23;4.95;;;;;;;;;;4829979;29;20046;-89
2023/12/17 16:52:01;;;;;;;17.60;4.93;;;;;;;;;;4829618;29;20403;-87
2023/12/17 16:54:46;;;;;;;22.23;5.13;;;;;;;;;;4827627;29;20058;-91
2023/12/17 16:57:30;;;;;;;18.40;4.63;;;;;;;;;;4830924;29;20042;-89